Flight Track Log - Related Links

Times and Time Zones

All times are in EDT time to prevent confusion due to time zone crossing. See the AWE9017 flight status page for this flight to view local times or setup timezone preferences in your user account.

Time Position Orientation Groundspeed Altitude Reporting Facility
EDT Latitude Longitude Course Direction KTS MPH feet Rate Location/Type
02:46PM 35.2328 -80.9392 13° North 167 192 1,900  Level Atlanta Center
02:47PM 35.2742 -80.9275 13° North 203 234 3,800 2,239 Climbing Atlanta Center
02:47PM 35.2822 -80.9194 39° Northeast 207 238 4,400 3,000 Climbing Atlanta Center
02:48PM 35.2972 -80.8553 74° East 257 296 6,800 2,757 Climbing Atlanta Center
02:49PM 35.3053 -80.7633 84° East 276 318 9,500 2,400 Climbing Atlanta Center
02:50PM 35.3150 -80.6611 83° East 282 325 11,600 1,750 Climbing Atlanta Center
02:51PM 35.3242 -80.5361 85° East 318 366 13,000 2,050 Climbing Atlanta Center
02:52PM 35.3517 -80.4103 75° East 359 413 15,700 2,275 Climbing Atlanta Center
02:53PM 35.4069 -80.2275 70° East 397 457 18,800 1,909 Climbing Washington Center
02:54PM 35.4478 -80.0844 71° East 402 463 20,600 2,085 Climbing Washington Center
02:55PM 35.4842 -79.9489 72° East 402 463 22,900 1,983 Climbing Washington Center
02:56PM 35.5183 -79.8078 73° East 412 474 24,500 1,623 Climbing Washington Center
02:57PM 35.5547 -79.6642 73° East 424 488 26,200 1,250 Climbing Washington Center
02:58PM 35.5950 -79.5181 71° East 442 509 27,000 400 Climbing Washington Center
02:59PM 35.6350 -79.3794 70° East 442 509 27,000 347 Level Washington Center
03:00PM 35.6914 -79.2467 62° Northeast 431 496 27,700 1,017 Climbing Washington Center
03:01PM 35.7433 -79.1133 64° Northeast 431 496 29,000 661 Climbing Washington Center
03:02PM 35.7994 -78.9775 63° Northeast 437 503 29,000 -50 Level Washington Center
03:03PM 35.8531 -78.8442 64° Northeast 437 503 28,900 -541 Descending Washington Center
03:04PM 35.9311 -78.7344 49° Northeast 430 495 27,900 -958 Descending Washington Center
03:05PM 36.0250 -78.6533 35° Northeast 414 476 27,000 -454 Descending Washington Center
03:06PM 36.1233 -78.5697 34° Northeast 413 475 27,000  Level Washington Center
03:07PM 36.1958 -78.5003 38° Northeast 413 475 27,000  Level Washington Center
03:08PM 36.3131 -78.3992 35° Northeast 419 482 27,000  Level Washington Center
03:09PM 36.4069 -78.3147 36° Northeast 419 482 27,000  Level Washington Center
03:10PM 36.5025 -78.2303 35° Northeast 419 482 27,000  Level Washington Center
03:11PM 36.5983 -78.1428 36° Northeast 419 482 27,000  Level Washington Center
03:12PM 36.6919 -78.0553 37° Northeast 419 482 27,000  Level Washington Center
03:13PM 36.7897 -77.9703 35° Northeast 419 482 27,000  Level Washington Center
03:14PM 36.8853 -77.8850 36° Northeast 419 482 27,000  Level Washington Center
03:15PM 36.9808 -77.7967 36° Northeast 419 482 27,000 -356 Level Washington Center
03:16PM 37.0761 -77.7108 36° Northeast 419 482 26,300 -864 Descending Washington Center
03:17PM 37.1672 -77.6275 36° Northeast 414 476 25,300 -942 Descending Washington Center
03:18PM 37.2606 -77.5411 36° Northeast 414 476 24,400 -992 Descending Washington Center
03:19PM 37.3517 -77.4600 35° Northeast 414 476 23,300 -694 Descending Washington Center
03:20PM 37.4403 -77.3808 35° Northeast 409 471 23,000 -149 Descending Washington Center
03:21PM 37.5269 -77.3122 32° Northeast 387 445 23,000  Level Washington Center
03:22PM 37.6253 -77.2936 North 353 406 23,000  Level Washington Center
03:23PM 37.7236 -77.2747 North 353 406 23,000  Level Washington Center
03:24PM 37.8217 -77.2533 10° North 353 406 23,000  Level Washington Center
03:25PM 37.9222 -77.2344 North 353 406 23,000  Level Washington Center
03:26PM 38.0206 -77.2128 10° North 353 406 23,000 -800 Level Washington Center
03:27PM 38.1231 -77.1939 North 353 406 21,400 -1,884 Descending Washington Center
03:28PM 38.2169 -77.1694 12° North 353 406 19,200 -2,361 Descending Washington Center
03:29PM 38.3111 -77.1556 North 353 406 16,600 -2,033 Descending Washington Center
03:30PM 38.3992 -77.1178 19° North 341 392 15,100 -1,627 Descending Washington Center
03:31PM 38.4669 -77.0342 44° Northeast 324 373 13,400 -1,513 Descending Washington Center
03:32PM 38.5367 -76.9506 43° Northeast 331 381 12,100 -1,339 Descending Washington Center
03:33PM 38.6022 -76.8694 44° Northeast 331 381 10,700 -1,041 Descending Washington Center
03:34PM 38.6614 -76.8014 42° Northeast 307 353 10,000 -857 Descending Washington Center
03:35PM 38.7119 -76.7331 47° Northeast 275 316 9,000 -908 Descending Washington Center
03:36PM 38.7481 -76.6511 61° Northeast 265 305 8,200 -1,200 Descending Washington Center
03:38PM 38.8000 -76.5333 60° Northeast 257 296 6,100 -1,292 Descending Potomac TRACON
03:39PM 38.8500 -76.4833 38° Northeast 230 265 5,100 -1,050 Descending Potomac TRACON
03:40PM 38.9167 -76.4667 11° North 214 246 4,000 -550 Descending Potomac TRACON
03:41PM 38.9667 -76.4833 345° North 190 219 4,000  Level Potomac TRACON
03:42PM 39.0000 -76.5000 339° North 138 159 4,000 -209 Level Potomac TRACON
03:43PM 39.0333 -76.5333 322° Northwest 139 160 3,600 -550 Descending Potomac TRACON
03:44PM 39.0667 -76.5667 322° Northwest 138 159 2,900 -750 Descending Potomac TRACON
03:45PM 39.0833 -76.6000 303° West 128 147 2,100 -793 Descending Potomac TRACON
03:46PM 39.1167 -76.6167 339° North 125 144 1,300 -744 Descending Potomac TRACON
03:47PM 39.1500 -76.6500 322° Northwest 127 146 600 -700 Descending Potomac TRACON
03:49PM 39.1667 -76.6667 339° North  Level FlightAware Approximate
03:56PM 39.1754 -76.6683 339° North  Level Estimated
03:57PM 39.1754 -76.6683 339° North  Level Estimated
03:58PM 39.1754 -76.6683 339° North  Level Estimated

Login

Don't have an account? Register now (free) for customized features, flight alerts, and more!